sensor_id;sensor_type;location;lat;lon;timestamp;temperature;humidity
75517;DHT22;64097;52.548;13.406;2022-10-15T06:01:10;18.50;69.00
75517;DHT22;64097;52.548;13.406;2022-10-15T06:03:37;18.40;69.80
75517;DHT22;64097;52.548;13.406;2022-10-15T06:06:03;18.50;69.20
75517;DHT22;64097;52.548;13.406;2022-10-15T06:08:30;18.50;69.30
75517;DHT22;64097;52.548;13.406;2022-10-15T06:11:01;18.40;69.30
75517;DHT22;64097;52.548;13.406;2022-10-15T06:13:27;18.40;69.30
75517;DHT22;64097;52.548;13.406;2022-10-15T06:15:53;18.50;69.40
75517;DHT22;64097;52.548;13.406;2022-10-15T06:18:19;18.50;69.30
75517;DHT22;64097;52.548;13.406;2022-10-15T06:20:50;18.50;69.30
75517;DHT22;64097;52.548;13.406;2022-10-15T06:23:17;18.50;69.20
75517;DHT22;64097;52.548;13.406;2022-10-15T06:25:42;18.50;69.20
75517;DHT22;64097;52.548;13.406;2022-10-15T06:28:08;18.50;69.10
75517;DHT22;64097;52.548;13.406;2022-10-15T06:30:34;18.50;69.20
75517;DHT22;64097;52.548;13.406;2022-10-15T06:33:00;18.50;69.10
75517;DHT22;64097;52.548;13.406;2022-10-15T06:35:26;18.50;69.20
75517;DHT22;64097;52.548;13.406;2022-10-15T06:37:55;18.50;69.10
75517;DHT22;64097;52.548;13.406;2022-10-15T06:40:20;18.50;69.10
75517;DHT22;64097;52.548;13.406;2022-10-15T06:42:46;18.50;69.10
75517;DHT22;64097;52.548;13.406;2022-10-15T06:45:12;18.50;69.20
75517;DHT22;64097;52.548;13.406;2022-10-15T06:47:41;18.50;69.20
75517;DHT22;64097;52.548;13.406;2022-10-15T06:50:07;18.50;69.20
75517;DHT22;64097;52.548;13.406;2022-10-15T06:52:33;18.50;69.30
75517;DHT22;64097;52.548;13.406;2022-10-15T06:55:00;18.60;69.40
75517;DHT22;64097;52.548;13.406;2022-10-15T06:57:28;18.60;69.30
75517;DHT22;64097;52.548;13.406;2022-10-15T06:59:54;18.70;69.30
75517;DHT22;64097;52.548;13.406;2022-10-15T07:02:20;18.70;69.30
75517;DHT22;64097;52.548;13.406;2022-10-15T07:04:46;18.70;69.20
75517;DHT22;64097;52.548;13.406;2022-10-15T07:07:13;18.80;69.20
75517;DHT22;64097;52.548;13.406;2022-10-15T07:09:38;18.80;69.20
75517;DHT22;64097;52.548;13.406;2022-10-15T07:12:04;18.80;69.30
75517;DHT22;64097;52.548;13.406;2022-10-15T07:14:30;18.80;69.20
75517;DHT22;64097;52.548;13.406;2022-10-15T07:16:57;18.90;69.20
75517;DHT22;64097;52.548;13.406;2022-10-15T07:19:22;18.90;69.10
75517;DHT22;64097;52.548;13.406;2022-10-15T07:21:48;19.00;69.20
75517;DHT22;64097;52.548;13.406;2022-10-15T07:24:14;19.00;69.10
75517;DHT22;64097;52.548;13.406;2022-10-15T07:26:39;19.00;68.90
75517;DHT22;64097;52.548;13.406;2022-10-15T07:29:05;19.10;69.00
75517;DHT22;64097;52.548;13.406;2022-10-15T07:31:31;19.10;68.90
75517;DHT22;64097;52.548;13.406;2022-10-15T07:33:57;19.10;68.80
75517;DHT22;64097;52.548;13.406;2022-10-15T07:36:24;19.10;68.70
75517;DHT22;64097;52.548;13.406;2022-10-15T07:38:50;19.20;68.70
75517;DHT22;64097;52.548;13.406;2022-10-15T07:41:15;19.20;68.70
75517;DHT22;64097;52.548;13.406;2022-10-15T07:43:41;19.20;68.60
75517;DHT22;64097;52.548;13.406;2022-10-15T07:46:07;19.30;68.70
75517;DHT22;64097;52.548;13.406;2022-10-15T07:48:33;19.30;68.60
75517;DHT22;64097;52.548;13.406;2022-10-15T07:51:00;19.40;68.70
75517;DHT22;64097;52.548;13.406;2022-10-15T07:53:27;19.50;68.60
75517;DHT22;64097;52.548;13.406;2022-10-15T07:55:52;19.50;68.50
75517;DHT22;64097;52.548;13.406;2022-10-15T07:58:19;19.50;68.30
75517;DHT22;64097;52.548;13.406;2022-10-15T08:00:45;19.60;68.30
75517;DHT22;64097;52.548;13.406;2022-10-15T08:03:11;19.60;68.20
75517;DHT22;64097;52.548;13.406;2022-10-15T08:05:36;19.60;68.00
75517;DHT22;64097;52.548;13.406;2022-10-15T08:08:02;19.70;68.00
75517;DHT22;64097;52.548;13.406;2022-10-15T08:10:28;19.70;67.90
75517;DHT22;64097;52.548;13.406;2022-10-15T08:12:54;19.80;67.90
75517;DHT22;64097;52.548;13.406;2022-10-15T08:15:19;19.80;67.70
75517;DHT22;64097;52.548;13.406;2022-10-15T08:17:45;19.90;67.80
75517;DHT22;64097;52.548;13.406;2022-10-15T08:20:11;19.90;67.70
75517;DHT22;64097;52.548;13.406;2022-10-15T08:22:37;19.90;67.60
75517;DHT22;64097;52.548;13.406;2022-10-15T08:25:03;20.00;67.70
75517;DHT22;64097;52.548;13.406;2022-10-15T08:27:29;20.10;67.50
75517;DHT22;64097;52.548;13.406;2022-10-15T08:29:54;20.10;67.50
75517;DHT22;64097;52.548;13.406;2022-10-15T08:32:20;20.20;67.30
75517;DHT22;64097;52.548;13.406;2022-10-15T08:34:45;20.20;67.40
75517;DHT22;64097;52.548;13.406;2022-10-15T08:37:11;20.20;66.90
75517;DHT22;64097;52.548;13.406;2022-10-15T08:39:37;20.30;66.80
75517;DHT22;64097;52.548;13.406;2022-10-15T08:42:15;20.30;66.70
75517;DHT22;64097;52.548;13.406;2022-10-15T08:44:46;20.30;66.50
75517;DHT22;64097;52.548;13.406;2022-10-15T08:47:35;20.30;66.40
75517;DHT22;64097;52.548;13.406;2022-10-15T08:50:22;20.30;66.50
75517;DHT22;64097;52.548;13.406;2022-10-15T08:52:51;20.30;66.50
75517;DHT22;64097;52.548;13.406;2022-10-15T08:55:19;20.40;66.30
75517;DHT22;64097;52.548;13.406;2022-10-15T09:05:41;20.40;65.80
75517;DHT22;64097;52.548;13.406;2022-10-15T09:13:25;20.40;65.50
75517;DHT22;64097;52.548;13.406;2022-10-15T09:16:31;20.40;65.30
75517;DHT22;64097;52.548;13.406;2022-10-15T09:18:51;20.40;65.50
75517;DHT22;64097;52.548;13.406;2022-10-15T09:21:19;20.40;65.80
75517;DHT22;64097;52.548;13.406;2022-10-15T09:23:46;20.50;65.90
75517;DHT22;64097;52.548;13.406;2022-10-15T09:31:21;20.60;65.90
75517;DHT22;64097;52.548;13.406;2022-10-15T09:33:52;20.70;65.60
75517;DHT22;64097;52.548;13.406;2022-10-15T09:42:02;20.80;65.10
75517;DHT22;64097;52.548;13.406;2022-10-15T09:44:37;20.80;65.00
75517;DHT22;64097;52.548;13.406;2022-10-15T09:47:15;20.80;64.90
75517;DHT22;64097;52.548;13.406;2022-10-15T09:49:41;20.90;65.10
75517;DHT22;64097;52.548;13.406;2022-10-15T09:52:34;20.90;65.00
75517;DHT22;64097;52.548;13.406;2022-10-15T09:57:47;21.10;64.20
75517;DHT22;64097;52.548;13.406;2022-10-15T10:00:16;21.10;64.40
75517;DHT22;64097;52.548;13.406;2022-10-15T10:02:42;21.20;64.20
75517;DHT22;64097;52.548;13.406;2022-10-15T10:05:37;21.20;63.90
75517;DHT22;64097;52.548;13.406;2022-10-15T10:10:41;21.30;63.30
75517;DHT22;64097;52.548;13.406;2022-10-15T10:13:22;21.30;62.90
75517;DHT22;64097;52.548;13.406;2022-10-15T10:15:51;21.40;63.00
75517;DHT22;64097;52.548;13.406;2022-10-15T10:18:22;21.40;63.20
75517;DHT22;64097;52.548;13.406;2022-10-15T10:21:24;21.40;63.00
75517;DHT22;64097;52.548;13.406;2022-10-15T10:23:51;21.40;62.80
75517;DHT22;64097;52.548;13.406;2022-10-15T10:26:17;21.50;62.70
75517;DHT22;64097;52.548;13.406;2022-10-15T10:28:51;21.50;62.50
75517;DHT22;64097;52.548;13.406;2022-10-15T10:31:27;21.50;62.60
75517;DHT22;64097;52.548;13.406;2022-10-15T10:33:54;21.60;62.50
75517;DHT22;64097;52.548;13.406;2022-10-15T10:36:29;21.60;62.60
75517;DHT22;64097;52.548;13.406;2022-10-15T10:39:04;21.60;62.50
75517;DHT22;64097;52.548;13.406;2022-10-15T10:52:31;21.80;61.50
75517;DHT22;64097;52.548;13.406;2022-10-15T10:55:03;21.80;61.50
75517;DHT22;64097;52.548;13.406;2022-10-15T11:00:06;21.90;61.50
75517;DHT22;64097;52.548;13.406;2022-10-15T11:02:33;21.90;61.70
75517;DHT22;64097;52.548;13.406;2022-10-15T11:05:03;21.90;61.70
75517;DHT22;64097;52.548;13.406;2022-10-15T11:07:56;22.00;61.60
75517;DHT22;64097;52.548;13.406;2022-10-15T11:10:29;22.00;61.60
75517;DHT22;64097;52.548;13.406;2022-10-15T11:13:37;22.10;61.60
75517;DHT22;64097;52.548;13.406;2022-10-15T11:16:23;22.20;61.10
75517;DHT22;64097;52.548;13.406;2022-10-15T11:19:11;22.20;61.00
75517;DHT22;64097;52.548;13.406;2022-10-15T11:30:04;22.30;60.80
75517;DHT22;64097;52.548;13.406;2022-10-15T11:41:37;22.50;60.40
75517;DHT22;64097;52.548;13.406;2022-10-15T11:57:16;22.50;59.30
75517;DHT22;64097;52.548;13.406;2022-10-15T11:59:48;22.50;59.50
75517;DHT22;64097;52.548;13.406;2022-10-15T12:02:33;22.60;59.40
75517;DHT22;64097;52.548;13.406;2022-10-15T12:05:19;22.60;59.30
75517;DHT22;64097;52.548;13.406;2022-10-15T12:07:48;22.60;59.20
75517;DHT22;64097;52.548;13.406;2022-10-15T12:13:24;22.60;59.10
75517;DHT22;64097;52.548;13.406;2022-10-15T12:23:51;22.60;59.00
75517;DHT22;64097;52.548;13.406;2022-10-15T12:28:54;22.60;58.90
75517;DHT22;64097;52.548;13.406;2022-10-15T12:31:21;22.70;59.00
75517;DHT22;64097;52.548;13.406;2022-10-15T12:33:56;22.70;58.70
75517;DHT22;64097;52.548;13.406;2022-10-15T12:36:24;22.70;58.60
75517;DHT22;64097;52.548;13.406;2022-10-15T12:39:18;22.70;58.70
75517;DHT22;64097;52.548;13.406;2022-10-15T12:41:47;22.70;58.40
75517;DHT22;64097;52.548;13.406;2022-10-15T12:44:20;22.70;58.30
75517;DHT22;64097;52.548;13.406;2022-10-15T12:46:47;22.70;58.30
75517;DHT22;64097;52.548;13.406;2022-10-15T12:55:36;22.70;58.20
75517;DHT22;64097;52.548;13.406;2022-10-15T12:58:32;22.70;58.30
75517;DHT22;64097;52.548;13.406;2022-10-15T13:00:57;22.70;57.90
75517;DHT22;64097;52.548;13.406;2022-10-15T13:03:37;22.70;58.00
75517;DHT22;64097;52.548;13.406;2022-10-15T13:11:50;22.80;57.80
75517;DHT22;64097;52.548;13.406;2022-10-15T13:14:41;22.80;57.70
75517;DHT22;64097;52.548;13.406;2022-10-15T13:17:15;22.80;57.60
75517;DHT22;64097;52.548;13.406;2022-10-15T13:19:50;22.80;57.70
75517;DHT22;64097;52.548;13.406;2022-10-15T13:22:28;22.80;57.80
75517;DHT22;64097;52.548;13.406;2022-10-15T13:24:54;22.80;57.70
75517;DHT22;64097;52.548;13.406;2022-10-15T13:27:26;22.80;57.70
75517;DHT22;64097;52.548;13.406;2022-10-15T13:29:59;22.90;57.70
75517;DHT22;64097;52.548;13.406;2022-10-15T13:32:30;22.80;57.60
75517;DHT22;64097;52.548;13.406;2022-10-15T13:34:56;22.90;57.70
75517;DHT22;64097;52.548;13.406;2022-10-15T13:37:30;22.90;57.60
75517;DHT22;64097;52.548;13.406;2022-10-15T13:39:57;22.90;57.70
75517;DHT22;64097;52.548;13.406;2022-10-15T13:42:24;22.90;57.60
75517;DHT22;64097;52.548;13.406;2022-10-15T13:45:14;22.90;57.40
75517;DHT22;64097;52.548;13.406;2022-10-15T13:47:44;22.90;57.50
75517;DHT22;64097;52.548;13.406;2022-10-15T13:50:35;22.90;57.30
75517;DHT22;64097;52.548;13.406;2022-10-15T13:55:48;22.90;57.10
75517;DHT22;64097;52.548;13.406;2022-10-15T13:58:25;22.80;57.10
